TimeCDT,TemperatureF,Dew PointF,Humidity,Sea Level PressureIn,VisibilityMPH,Wind Direction,Wind SpeedMPH,Gust SpeedMPH,PrecipitationIn,Events,Conditions,WindDirDegrees,DateUTC
12:16 AM,55.4,48.2,77,29.66,10.0,SE,3.5,-,N/A,,Clear,130,2013-09-30 05:16:00
12:36 AM,53.6,48.2,82,29.65,10.0,SE,3.5,-,N/A,,Clear,130,2013-09-30 05:36:00
12:56 AM,51.8,48.2,88,29.64,10.0,Calm,Calm,-,N/A,,Clear,0,2013-09-30 05:56:00
1:16 AM,51.8,48.2,88,29.63,10.0,SE,3.5,-,N/A,,Clear,140,2013-09-30 06:16:00
1:36 AM,59.0,48.2,67,29.63,10.0,SSE,8.1,16.1,N/A,,Clear,160,2013-09-30 06:36:00
1:56 AM,60.8,46.4,59,29.63,10.0,SSE,12.7,18.4,N/A,,Clear,160,2013-09-30 06:56:00
2:16 AM,62.6,46.4,55,29.63,10.0,South,9.2,18.4,N/A,,Clear,170,2013-09-30 07:16:00
2:36 AM,60.8,46.4,59,29.62,10.0,SSE,10.4,-,N/A,,Clear,160,2013-09-30 07:36:00
2:56 AM,60.8,46.4,59,29.61,10.0,SSE,9.2,-,N/A,,Clear,160,2013-09-30 07:56:00
3:16 AM,60.8,46.4,59,29.61,10.0,South,9.2,-,N/A,,Clear,170,2013-09-30 08:16:00
3:36 AM,60.8,46.4,59,29.60,10.0,South,10.4,-,N/A,,Clear,170,2013-09-30 08:36:00
3:56 AM,60.8,46.4,59,29.59,10.0,South,10.4,-,N/A,,Clear,170,2013-09-30 08:56:00
4:16 AM,60.8,46.4,59,29.59,10.0,SSE,9.2,16.1,N/A,,Clear,160,2013-09-30 09:16:00
4:36 AM,59.0,46.4,63,29.59,10.0,SSE,11.5,-,N/A,,Clear,160,2013-09-30 09:36:00
4:56 AM,57.2,46.4,67,29.59,10.0,South,8.1,-,N/A,,Clear,170,2013-09-30 09:56:00
5:16 AM,57.2,46.4,67,29.59,10.0,South,9.2,-,N/A,,Clear,170,2013-09-30 10:16:00
5:36 AM,57.2,46.4,67,29.60,10.0,South,5.8,-,N/A,,Clear,180,2013-09-30 10:36:00
5:55 AM,55.4,46.4,72,29.60,10.0,SSE,6.9,-,N/A,,Clear,160,2013-09-30 10:55:00
6:16 AM,55.4,46.4,72,29.60,10.0,SSE,5.8,-,N/A,,Clear,160,2013-09-30 11:16:00
6:36 AM,53.6,46.4,77,29.60,10.0,South,6.9,-,N/A,,Clear,170,2013-09-30 11:36:00
6:56 AM,53.6,46.4,77,29.59,10.0,South,8.1,-,N/A,,Clear,170,2013-09-30 11:56:00
7:16 AM,53.6,46.4,77,29.59,10.0,South,5.8,-,N/A,,Clear,170,2013-09-30 12:16:00
7:36 AM,53.6,46.4,77,29.59,10.0,South,6.9,-,N/A,,Clear,170,2013-09-30 12:36:00
7:56 AM,53.6,46.4,77,29.59,10.0,South,5.8,-,N/A,,Clear,170,2013-09-30 12:56:00
8:16 AM,55.4,46.4,72,29.59,10.0,South,6.9,-,N/A,,Clear,170,2013-09-30 13:16:00
8:36 AM,57.2,48.2,72,29.59,10.0,South,6.9,-,N/A,,Clear,180,2013-09-30 13:36:00
8:56 AM,57.2,48.2,72,29.59,10.0,South,5.8,-,N/A,,Clear,170,2013-09-30 13:56:00
9:17 AM,57.2,48.2,72,29.58,10.0,South,5.8,-,N/A,,Clear,190,2013-09-30 14:17:00
9:36 AM,60.8,48.2,63,29.58,10.0,SSE,8.1,-,N/A,,Clear,160,2013-09-30 14:36:00
9:56 AM,60.8,48.2,63,29.58,10.0,South,6.9,-,N/A,,Clear,170,2013-09-30 14:56:00
10:16 AM,62.6,50.0,63,29.58,10.0,South,6.9,-,N/A,,Clear,170,2013-09-30 15:16:00
10:36 AM,64.4,50.0,59,29.58,10.0,South,9.2,-,N/A,,Clear,180,2013-09-30 15:36:00
10:56 AM,64.4,50.0,59,29.59,10.0,South,6.9,-,N/A,,Clear,180,2013-09-30 15:56:00
11:16 AM,66.2,51.8,60,29.58,10.0,South,5.8,-,N/A,,Clear,190,2013-09-30 16:16:00
11:36 AM,66.2,51.8,60,29.58,10.0,South,6.9,-,N/A,,Clear,170,2013-09-30 16:36:00
11:56 AM,66.2,51.8,60,29.58,10.0,South,6.9,-,N/A,,Clear,170,2013-09-30 16:56:00
12:16 PM,68.0,51.8,56,29.58,10.0,SE,6.9,-,N/A,,Clear,140,2013-09-30 17:16:00
12:36 PM,68.0,51.8,56,29.58,10.0,SSE,8.1,-,N/A,,Clear,150,2013-09-30 17:36:00
12:56 PM,69.8,51.8,53,29.58,10.0,SSE,8.1,-,N/A,,Clear,150,2013-09-30 17:56:00
1:16 PM,69.8,53.6,56,29.58,10.0,South,8.1,-,N/A,,Clear,170,2013-09-30 18:16:00
1:36 PM,71.6,53.6,53,29.58,10.0,SSE,8.1,-,N/A,,Clear,160,2013-09-30 18:36:00
1:56 PM,71.6,53.6,53,29.58,10.0,SSE,6.9,-,N/A,,Clear,160,2013-09-30 18:56:00
2:15 PM,71.6,53.6,53,29.58,10.0,SSE,8.1,-,N/A,,Clear,160,2013-09-30 19:15:00
2:35 PM,71.6,53.6,53,29.58,10.0,SSE,10.4,16.1,N/A,,Clear,160,2013-09-30 19:35:00
2:55 PM,71.6,53.6,53,29.58,10.0,SSE,8.1,-,N/A,,Clear,160,2013-09-30 19:55:00
3:16 PM,71.6,53.6,53,29.58,10.0,South,5.8,-,N/A,,Clear,190,2013-09-30 20:16:00
3:36 PM,71.6,53.6,53,29.58,10.0,South,8.1,-,N/A,,Clear,180,2013-09-30 20:36:00
3:56 PM,73.4,53.6,50,29.58,10.0,SSE,9.2,-,N/A,,Clear,150,2013-09-30 20:56:00
4:15 PM,71.6,53.6,53,29.57,10.0,SSE,9.2,-,N/A,,Clear,150,2013-09-30 21:15:00
4:36 PM,71.6,53.6,53,29.58,10.0,SSE,8.1,-,N/A,,Clear,160,2013-09-30 21:36:00
4:55 PM,71.6,53.6,53,29.58,10.0,South,9.2,-,N/A,,Clear,170,2013-09-30 21:55:00
5:16 PM,71.6,53.6,53,29.57,10.0,SSE,10.4,-,N/A,,Clear,160,2013-09-30 22:16:00
5:36 PM,69.8,53.6,56,29.57,10.0,SSE,6.9,-,N/A,,Clear,160,2013-09-30 22:36:00
5:56 PM,68.0,53.6,60,29.58,10.0,SSE,8.1,-,N/A,,Clear,160,2013-09-30 22:56:00
6:15 PM,66.2,53.6,64,29.58,10.0,SSE,5.8,-,N/A,,Clear,160,2013-09-30 23:15:00
6:35 PM,64.4,55.4,73,29.59,10.0,SSE,4.6,-,N/A,,Clear,160,2013-09-30 23:35:00
6:55 PM,62.6,55.4,77,29.58,10.0,SE,3.5,-,N/A,,Clear,140,2013-09-30 23:55:00
7:16 PM,64.4,55.4,73,29.58,10.0,SE,3.5,-,N/A,,Clear,130,2013-10-01 00:16:00
7:36 PM,62.6,55.4,77,29.59,10.0,Calm,Calm,-,N/A,,Clear,0,2013-10-01 00:36:00
7:56 PM,62.6,55.4,77,29.59,10.0,SE,3.5,-,N/A,,Clear,140,2013-10-01 00:56:00
8:16 PM,62.6,55.4,77,29.59,10.0,SE,5.8,-,N/A,,Clear,140,2013-10-01 01:16:00
8:35 PM,60.8,55.4,82,29.59,10.0,SSE,5.8,-,N/A,,Clear,150,2013-10-01 01:35:00
8:56 PM,60.8,55.4,82,29.59,10.0,SSE,4.6,-,N/A,,Clear,160,2013-10-01 01:56:00
9:16 PM,60.8,55.4,82,29.59,10.0,SE,6.9,-,N/A,,Clear,140,2013-10-01 02:16:00
9:36 PM,60.8,53.6,77,29.58,10.0,SE,4.6,-,N/A,,Clear,140,2013-10-01 02:36:00
9:56 PM,62.6,53.6,72,29.57,10.0,SE,3.5,-,N/A,,Clear,130,2013-10-01 02:56:00
10:16 PM,62.6,53.6,72,29.57,10.0,SE,4.6,-,N/A,,Clear,130,2013-10-01 03:16:00
10:36 PM,62.6,53.6,72,29.56,10.0,SE,6.9,-,N/A,,Clear,140,2013-10-01 03:36:00
10:56 PM,62.6,53.6,72,29.55,10.0,SE,8.1,-,N/A,,Clear,140,2013-10-01 03:56:00
11:16 PM,60.8,53.6,77,29.55,10.0,SE,4.6,-,N/A,,Clear,140,2013-10-01 04:16:00
11:36 PM,60.8,53.6,77,29.55,10.0,Calm,Calm,-,N/A,,Clear,0,2013-10-01 04:36:00
11:56 PM,57.2,53.6,88,29.54,10.0,Calm,Calm,-,N/A,,Clear,0,2013-10-01 04:56:00